createdAt,value
2017-08-24T00:24:25.212Z,17.41
2017-08-24T01:46:59.876Z,17.04
2017-08-24T06:54:38.369Z,18.99
2017-08-24T06:57:44.498Z,19.03
2017-08-24T07:01:16.928Z,18.95
2017-08-24T07:13:05.118Z,18.96
2017-08-24T07:15:48.640Z,19.02
2017-08-24T07:18:42.518Z,18.97
2017-08-24T07:21:36.958Z,18.90
2017-08-24T07:24:31.809Z,18.81
2017-08-24T07:34:13.456Z,18.90
2017-08-24T07:36:57.086Z,19.04
2017-08-24T07:40:02.371Z,19.05
2017-08-24T07:42:52.073Z,19.02
2017-08-24T07:48:47.552Z,19.03
2017-08-24T07:51:31.724Z,19.16
2017-08-24T07:54:26.004Z,19.21
2017-08-24T07:57:20.756Z,19.24
2017-08-24T08:00:15.834Z,19.29
2017-08-24T08:03:10.898Z,19.31
2017-08-24T08:06:05.849Z,19.31
2017-08-24T08:09:00.737Z,19.31
2017-08-24T08:11:55.882Z,19.33
2017-08-24T08:14:50.750Z,19.35
2017-08-24T08:17:45.743Z,19.38
2017-08-24T08:20:40.838Z,19.42
2017-08-24T08:23:35.857Z,19.49
2017-08-24T08:26:30.921Z,19.56
2017-08-24T08:29:25.953Z,19.62
2017-08-24T08:32:20.881Z,19.70
2017-08-24T08:35:15.982Z,19.75
2017-08-24T08:38:11.134Z,19.82
2017-08-24T08:41:06.257Z,19.94
2017-08-24T08:44:01.306Z,20.01
2017-08-24T08:46:56.269Z,20.07
2017-08-24T08:49:51.311Z,20.15
2017-08-24T08:55:41.493Z,20.28
2017-08-24T08:58:36.605Z,20.38
2017-08-24T09:01:31.703Z,20.47
2017-08-24T09:04:27.126Z,20.59
2017-08-24T09:07:22.264Z,20.73
2017-08-24T09:10:17.555Z,20.85
2017-08-24T09:13:12.748Z,20.95
2017-08-24T09:16:07.924Z,21.03
2017-08-24T09:19:02.966Z,21.10
2017-08-24T09:21:58.138Z,21.15
2017-08-24T09:24:53.361Z,21.20
2017-08-24T09:27:48.405Z,21.23
2017-08-24T09:30:43.502Z,21.26
2017-08-24T09:33:38.613Z,21.27
2017-08-24T09:36:33.735Z,21.26
2017-08-24T09:39:29.931Z,21.24
2017-08-24T09:42:23.936Z,21.23
2017-08-24T09:45:19.130Z,21.23
2017-08-24T09:48:14.193Z,21.23
2017-08-24T09:51:09.320Z,21.24
2017-08-24T09:54:04.465Z,21.25
2017-08-24T09:56:59.528Z,21.24
2017-08-24T09:59:54.648Z,21.22
2017-08-24T10:02:49.792Z,21.20
2017-08-24T10:05:44.924Z,21.20
2017-08-24T10:08:39.922Z,21.19
2017-08-24T10:11:35.128Z,21.18
2017-08-24T10:17:25.338Z,21.14
2017-08-24T10:20:20.462Z,21.12
2017-08-24T10:23:15.557Z,21.09
2017-08-24T10:26:10.737Z,21.07
2017-08-24T10:29:05.893Z,21.05
2017-08-24T10:32:00.917Z,21.06
2017-08-24T10:34:56.076Z,21.06
2017-08-24T10:37:51.276Z,21.05
2017-08-24T10:40:46.435Z,21.05
2017-08-24T10:43:41.590Z,21.07
2017-08-24T10:46:36.677Z,21.10
2017-08-24T10:49:31.777Z,21.15
2017-08-24T10:52:26.829Z,21.20
2017-08-24T10:55:21.899Z,21.24
2017-08-24T10:58:16.938Z,21.26
2017-08-24T11:01:12.007Z,21.28
2017-08-24T11:04:07.134Z,21.32
2017-08-24T11:07:02.296Z,21.36
2017-08-24T11:09:57.507Z,21.41
2017-08-24T11:12:52.700Z,21.45
2017-08-24T11:15:47.826Z,21.48
2017-08-24T11:18:42.986Z,21.54
2017-08-24T11:21:38.108Z,21.59
2017-08-24T11:24:33.248Z,21.63
2017-08-24T11:27:28.356Z,21.66
2017-08-24T11:30:23.573Z,21.69
2017-08-24T11:33:18.719Z,21.72
2017-08-24T11:36:13.893Z,21.75
2017-08-24T11:39:09.306Z,21.78
2017-08-24T11:42:04.410Z,21.81
2017-08-24T11:44:59.613Z,21.84
2017-08-24T11:47:54.713Z,21.87
2017-08-24T11:50:49.983Z,21.89
2017-08-24T11:53:45.213Z,21.91
2017-08-24T11:59:35.448Z,21.93
2017-08-24T12:02:30.565Z,21.94
2017-08-24T12:05:25.737Z,21.95
2017-08-24T12:08:20.948Z,21.97
2017-08-24T12:11:16.049Z,22.01
2017-08-24T12:14:11.241Z,22.04
2017-08-24T12:17:06.431Z,22.06
2017-08-24T12:20:01.581Z,22.07
2017-08-24T12:22:56.787Z,22.08
2017-08-24T12:25:52.002Z,22.09
2017-08-24T12:28:47.089Z,22.10
2017-08-24T12:31:42.290Z,22.13
2017-08-24T12:34:37.654Z,22.16
2017-08-24T12:37:32.817Z,22.20
2017-08-24T12:40:27.922Z,22.23
2017-08-24T12:43:23.059Z,22.25
2017-08-24T12:46:18.173Z,22.26
2017-08-24T12:49:13.358Z,22.27
2017-08-24T12:52:08.465Z,22.30
2017-08-24T12:55:03.629Z,22.34
2017-08-24T12:57:58.795Z,22.35
2017-08-24T13:00:53.993Z,22.36
2017-08-24T13:03:49.292Z,22.36
2017-08-24T13:06:44.391Z,22.36
2017-08-24T13:09:39.560Z,22.36
2017-08-24T13:12:34.814Z,22.38
2017-08-24T13:15:30.039Z,22.39
2017-08-24T13:18:25.178Z,22.39
2017-08-24T13:21:20.297Z,22.39
2017-08-24T13:24:15.465Z,22.39
2017-08-24T13:27:10.593Z,22.40
2017-08-24T13:30:05.808Z,22.41
2017-08-24T13:33:00.998Z,22.42
2017-08-24T13:35:56.243Z,22.44
2017-08-24T13:38:51.471Z,22.46
2017-08-24T13:41:46.661Z,22.47
2017-08-24T13:44:41.877Z,22.49
2017-08-24T13:47:37.038Z,22.50
2017-08-24T13:53:27.423Z,22.52
2017-08-24T13:56:22.578Z,22.51
2017-08-24T13:59:17.753Z,22.50
2017-08-24T14:02:12.912Z,22.49
2017-08-24T14:05:30.645Z,22.49
2017-08-24T14:08:18.927Z,22.50
2017-08-24T14:11:14.095Z,22.52
2017-08-24T14:14:31.986Z,22.52
2017-08-24T14:17:20.206Z,22.54
2017-08-24T14:20:37.797Z,22.54
2017-08-24T14:27:57.319Z,22.74
2017-08-24T14:30:41.543Z,22.91
2017-08-24T14:33:35.997Z,22.97
2017-08-24T14:36:31.001Z,22.96
2017-08-24T14:39:26.040Z,22.91
2017-08-24T14:49:08.021Z,23.07
2017-08-24T14:51:52.086Z,23.21
2017-08-24T14:54:46.484Z,23.22
2017-08-24T14:57:41.290Z,23.19
2017-08-24T15:07:45.719Z,23.26
2017-08-24T15:10:29.745Z,23.37
2017-08-24T15:13:23.813Z,23.36
2017-08-24T15:25:20.990Z,23.51
2017-08-24T15:28:04.929Z,23.61
2017-08-24T15:30:59.304Z,23.58
2017-08-24T15:42:45.162Z,23.69
2017-08-24T15:45:29.071Z,23.77
2017-08-24T15:48:23.223Z,23.72
2017-08-24T16:00:31.694Z,23.71
2017-08-24T16:03:15.553Z,23.77
2017-08-24T16:06:09.631Z,23.73
2017-08-24T16:09:04.377Z,23.59
2017-08-24T16:21:35.592Z,23.56
2017-08-24T16:24:19.396Z,23.61
2017-08-24T16:38:08.903Z,23.67
2017-08-24T16:40:52.778Z,23.71
2017-08-24T16:43:58.228Z,23.60
2017-08-24T16:59:36.587Z,23.60
2017-08-24T17:02:20.358Z,23.64
2017-08-24T17:05:25.645Z,23.53
2017-08-24T17:22:11.682Z,23.59
2017-08-24T17:24:55.391Z,23.63
2017-08-24T17:27:49.359Z,23.53
2017-08-24T17:47:52.310Z,23.59
2017-08-24T17:50:35.898Z,23.61
2017-08-24T18:09:19.078Z,23.60
2017-08-24T18:12:02.875Z,23.61
2017-08-24T18:23:02.596Z,23.40
2017-08-24T18:25:46.261Z,23.42
2017-08-24T18:39:35.651Z,23.33
2017-08-24T18:42:19.467Z,23.35
2017-08-24T18:58:47.156Z,23.34
2017-08-24T19:01:30.788Z,23.35
2017-08-24T19:15:42.778Z,23.25
2017-08-24T19:18:26.336Z,23.27
2017-08-24T19:33:12.093Z,23.20
2017-08-24T19:35:55.753Z,23.22
